Ypsilanti, ND

10:59 PM CDT on September 01, 2014 (GMT -0500)
Jamestown Municipal | Change Station
CLOSE
Current Station
Airport
Location: Jamestown,
Elevation: 1499 ft
Nearby Weather Stations

Elev 1499 ft 46.93 °N, 98.67 °W | Updated 3 minutes ago

Clear
Clear
56 °F
Feels Like 56 °F
N
4
Wind Variable Wind from West

Today
High -- | Low -- °F
--% Chance of Precip.
Yesterday
High -- | Low -- °F
Precip. -- in
6:53 AM 8:12 PM
Waxing Crescent, 47% visible
Pressure 29.83 in
Visibility 10.0 miles
Clouds Clear
Dew Point 50 °F
Humidity 80%
Rainfall 0.00 in
Snow Depth Not available.
UV 0 out of 12
Pollen 9.30 out of 12
Air Quality Not available.
Flu Activity Not available.
METAR KJMS 020356Z AUTO 26003KT 10SM CLR 13/10 A2983 RMK AO2 SLP100 T01330100

More Conditions Fewer Conditions

Pressure 29.83 in
Visibility 10.0 miles
Clouds Clear
Dew Point 50 °F
Humidity 80%
Rainfall 0.00 in
Snow Depth Not available.
UV 0 out of 12
Pollen 9.30 out of 12
Air Quality Not available.
Flu Activity Not available.
METAR KJMS 020356Z AUTO 26003KT 10SM CLR 13/10 A2983 RMK AO2 SLP100 T01330100

More Conditions Fewer Conditions

10-Day Weather Forecast

Almanac

Astronomy

Sep. 01, 2014 Rise Set
Actual Time 6:53 AM CDT 8:12 PM CDT
Civil Twilight 6:22 AM CDT 8:44 PM CDT
Nautical Twilight 5:44 AM CDT 9:22 PM CDT
Astronomical Twilight 5:03 AM CDT 10:02 PM CDT
Moon 2:05 PM CDT (9/1) 11:49 PM CDT (9/1)
Length of Visible Light 14h 22m
Length of Day
13h 19m
Tomorrow will be 3m 13s shorter.
Waxing Crescent, 47% of the Moon is Illuminated
Today
Waxing Crescent
Sep 2
First Quarter
Sep 8
Full
Sep 15
Last Quarter
Sep 24
New

Today's Extremes

State Highs State Lows

Community

WunderPhotos

Upload Photos

1,749,557 photos uploaded!

WunderBlogs® & News

Nearby

Snow Depth

Station Depth Elevation
No new snow has been reported.

Earthquake Activity

City Distance Mag. Time & Date
No recent earthquake activity has been reported nearby.
Minimum magnitude displayed is 2.5.

Coastal Water Temperatures

Place Temperature
No Stations Reporting

Nearby Weather Stations